YCE weather

Centralia / James T. Field Memorial Aerodrome
Centralia, Ontario, Canada

Public forecast

Using degrees Celsius for public forecast. Weather courtesy of forecast.io.

Closest aviation weather report (METAR) to Centralia / James T. Field Memorial Aerodrome

Closest report is London Airport, 21.6 nm (40.0 km) SE. Retrieved 2020/02/18 12:00 UTC (10 minutes ago):

CYXU 181200Z 14010KT 10SM OVC014 01/01 A2979 RMK SF8 CIG RAG SLP101

Closest aviation forecast (TAF) to Centralia / James T. Field Memorial Aerodrome

Closest forecast is London Airport, 21.6 nm (40.0 km) SE. Retrieved 2020/02/18 12:42 UTC (0 seconds ago):

TAF CYXU 181138Z 1812/1912 14010G20KT 3SM -RA -DZ BR OVC005 TEMPO 1812/1815 P6SM NSW SCT006 OVC012 BECMG 1812/1814 22012G22KT FM181500 23015G28KT 5SM -DZ BR OVC006 TEMPO 1815/1817 P6SM NSW SCT007 OVC012 FM181700 25018G32KT P6SM OVC015 TEMPO 1817/1823 P6SM -SHRA BECMG 1818/1820 27018G28KT FM182300 28015KT 21/2SM -SHSN OVC015 FM190200 29010KT P6SM SCT020 FM190700 28015KT P6SM BKN012 FM191100 30012G22KT 21/2SM -SHSN OVC010 RMK NXT FCST BY 181800Z